Time;durP1;ratioP1;P1;durP2;ratioP2;P2;SDS_P1;SDS_P2;PMS_P1;PMS_P2;Temp;Humidity;BMP_temperature;BMP_pressure;BME280_temperature;BME280_humidity;BME280_pressure;Samples;Min_cycle;Max_cycle;Signal;HPM_P1;HPM_P2
2021/07/01 00:01:25;;;;;;;522.50;311.30;;;12.10;99.90;;;;;;8194781;28;20039;-65
2021/07/01 00:05:25;;;;;;;529.20;319.85;;;12.20;99.90;;;;;;8219224;28;20022;-65
2021/07/01 00:09:26;;;;;;;530.10;322.23;;;12.20;99.90;;;;;;8227663;28;20058;-65
2021/07/01 00:13:27;;;;;;;526.15;316.20;;;12.20;99.90;;;;;;8226281;28;20033;-65
2021/07/01 00:17:27;;;;;;;528.08;317.50;;;12.20;99.90;;;;;;8195470;28;20097;-65
2021/07/01 00:21:28;;;;;;;527.20;318.05;;;12.20;99.90;;;;;;8210146;28;20038;-65
2021/07/01 00:25:29;;;;;;;525.78;316.90;;;12.20;99.90;;;;;;8195144;28;20393;-65
2021/07/01 00:29:29;;;;;;;524.15;311.95;;;12.20;99.90;;;;;;8195567;28;20038;-65
2021/07/01 00:33:30;;;;;;;528.15;309.25;;;12.20;99.90;;;;;;8202404;28;20019;-65
2021/07/01 00:37:32;;;;;;;526.95;307.08;;;12.20;99.90;;;;;;8226786;28;20031;-65
2021/07/01 00:41:33;;;;;;;530.97;313.92;;;12.30;99.90;;;;;;8227191;28;20027;-65
2021/07/01 00:45:34;;;;;;;529.25;307.40;;;12.30;99.90;;;;;;8226960;28;20115;-65
2021/07/01 00:49:34;;;;;;;534.95;313.30;;;12.30;99.90;;;;;;8225509;28;20365;-65
2021/07/01 00:53:35;;;;;;;533.63;310.17;;;12.30;99.90;;;;;;8214572;28;20027;-65
2021/07/01 00:57:36;;;;;;;528.72;305.85;;;12.40;99.90;;;;;;8194539;28;20062;-65
2021/07/01 01:01:37;;;;;;;530.55;307.90;;;12.30;99.90;;;;;;8194517;28;20457;-65
2021/07/01 01:05:38;;;;;;;532.10;308.50;;;12.30;99.90;;;;;;8218927;28;20034;-65
2021/07/01 01:09:38;;;;;;;532.75;306.77;;;12.30;99.90;;;;;;8226068;28;20618;-65
2021/07/01 01:13:42;;;;;;;524.55;305.83;;;12.30;99.90;;;;;;8226015;28;20043;-65
2021/07/01 01:17:44;;;;;;;523.20;296.85;;;12.30;99.90;;;;;;8226047;28;20041;-65
2021/07/01 01:21:48;;;;;;;523.15;298.88;;;12.30;99.90;;;;;;8224579;28;20065;-65
2021/07/01 01:25:51;;;;;;;518.28;296.63;;;12.30;99.90;;;;;;8195253;28;20580;-65
2021/07/01 01:29:51;;;;;;;524.03;297.63;;;12.30;99.90;;;;;;8193878;28;20627;-65
2021/07/01 01:33:53;;;;;;;521.70;294.02;;;12.30;99.90;;;;;;8204931;28;20073;-65
2021/07/01 01:37:53;;;;;;;521.38;293.85;;;12.30;99.90;;;;;;8225487;28;20644;-65
2021/07/01 01:41:54;;;;;;;520.42;294.25;;;12.30;99.90;;;;;;8225294;28;20038;-65
2021/07/01 01:45:55;;;;;;;524.70;297.08;;;12.30;99.90;;;;;;8225083;28;20412;-65
2021/07/01 01:49:55;;;;;;;522.45;296.73;;;12.30;99.90;;;;;;8225278;28;20042;-66
2021/07/01 01:53:56;;;;;;;525.53;290.35;;;12.30;99.90;;;;;;8208713;28;20031;-65
2021/07/01 01:57:57;;;;;;;529.13;290.38;;;12.20;99.90;;;;;;8193106;28;20110;-65
2021/07/01 02:01:58;;;;;;;525.88;283.10;;;12.30;99.90;;;;;;8191884;28;20027;-65
2021/07/01 02:05:59;;;;;;;524.33;283.52;;;12.30;99.90;;;;;;8220518;28;20051;-65
2021/07/01 02:10:00;;;;;;;489.35;275.85;;;12.30;99.90;;;;;;8223489;28;20404;-65
2021/07/01 02:14:01;;;;;;;510.00;281.40;;;12.30;99.90;;;;;;8224778;28;20038;-65
2021/07/01 02:18:02;;;;;;;511.38;284.23;;;12.20;99.90;;;;;;8223749;28;20077;-65
2021/07/01 02:22:02;;;;;;;515.45;281.05;;;12.30;99.90;;;;;;8223966;28;20019;-65
2021/07/01 02:26:03;;;;;;;524.83;287.15;;;12.30;99.90;;;;;;8192300;28;20028;-65
2021/07/01 02:30:09;;;;;;;511.80;289.92;;;12.30;99.90;;;;;;8192506;28;20023;-65
2021/07/01 02:34:09;;;;;;;511.80;284.38;;;12.30;99.90;;;;;;8205681;28;20038;-65
2021/07/01 02:38:10;;;;;;;527.95;289.20;;;12.30;99.90;;;;;;8224102;28;20023;-65
2021/07/01 02:42:10;;;;;;;529.35;289.15;;;12.30;99.90;;;;;;8224006;28;20026;-65
2021/07/01 02:46:11;;;;;;;532.42;289.90;;;12.40;99.90;;;;;;8224031;28;20129;-65
2021/07/01 02:50:12;;;;;;;537.17;296.90;;;12.30;99.90;;;;;;8224097;28;20023;-65
2021/07/01 02:54:13;;;;;;;540.65;291.90;;;12.30;99.90;;;;;;8205364;28;20073;-65
2021/07/01 02:58:14;;;;;;;521.72;290.65;;;12.30;99.90;;;;;;8192099;28;20035;-65
2021/07/01 03:02:14;;;;;;;522.63;278.20;;;12.30;99.90;;;;;;8191928;28;20031;-65
2021/07/01 03:06:15;;;;;;;510.83;272.80;;;12.30;99.90;;;;;;8221559;28;20054;-65
2021/07/01 03:10:15;;;;;;;496.75;271.38;;;12.40;99.90;;;;;;8223636;28;20061;-66
2021/07/01 03:14:16;;;;;;;501.45;275.35;;;12.30;99.90;;;;;;8223681;28;20127;-65
2021/07/01 03:18:16;;;;;;;519.53;278.42;;;12.30;99.90;;;;;;8223568;28;20053;-65
2021/07/01 03:22:17;;;;;;;515.05;274.55;;;12.30;99.90;;;;;;8221138;28;20084;-65
2021/07/01 03:26:18;;;;;;;505.75;272.05;;;12.30;99.90;;;;;;8191478;28;20027;-65
2021/07/01 03:30:19;;;;;;;506.35;274.90;;;12.30;99.90;;;;;;8196870;28;20051;-65
2021/07/01 03:34:20;;;;;;;491.75;271.73;;;12.30;99.90;;;;;;8211841;28;20034;-65
2021/07/01 03:38:20;;;;;;;484.83;274.55;;;12.30;99.90;;;;;;8228771;28;20034;-65
2021/07/01 03:42:21;;;;;;;491.75;271.23;;;12.30;99.90;;;;;;8228742;28;20080;-65
2021/07/01 03:46:22;;;;;;;492.70;274.15;;;12.30;99.90;;;;;;8225613;28;20060;-65
2021/07/01 03:50:23;;;;;;;492.00;271.30;;;12.40;99.90;;;;;;8196283;28;20117;-65
2021/07/01 03:54:23;;;;;;;488.23;268.13;;;12.40;99.90;;;;;;8196440;28;20630;-65
2021/07/01 03:58:24;;;;;;;492.10;276.40;;;12.40;99.90;;;;;;8173095;28;20131;-65
2021/07/01 04:02:25;;;;;;;487.35;261.25;;;12.40;99.90;;;;;;8187513;29;20058;-65
2021/07/01 04:06:25;;;;;;;487.65;262.38;;;12.40;99.90;;;;;;8195553;28;20725;-65
2021/07/01 04:10:26;;;;;;;491.67;265.25;;;12.50;99.90;;;;;;8194506;28;20024;-65
2021/07/01 04:14:26;;;;;;;483.77;265.10;;;12.50;99.90;;;;;;8194931;28;20043;-64
2021/07/01 04:18:27;;;;;;;502.48;265.65;;;12.50;99.90;;;;;;8194262;28;20024;-64
2021/07/01 04:22:27;;;;;;;509.10;269.73;;;12.50;99.90;;;;;;8194289;28;20400;-64
2021/07/01 04:26:28;;;;;;;511.67;277.17;;;12.60;99.90;;;;;;8192504;28;20027;-64
2021/07/01 04:30:29;;;;;;;509.73;274.00;;;12.60;99.90;;;;;;8192752;28;20117;-64
2021/07/01 04:34:30;;;;;;;527.33;279.00;;;12.70;99.90;;;;;;8176959;28;20034;-64
2021/07/01 04:38:31;;;;;;;529.58;277.25;;;12.80;99.90;;;;;;8164642;28;20518;-68
2021/07/01 04:42:31;;;;;;;533.70;281.52;;;12.90;99.90;;;;;;8161697;29;20036;-68
2021/07/01 04:46:32;;;;;;;533.38;279.27;;;12.90;99.90;;;;;;8173148;28;20028;-68
2021/07/01 04:50:34;;;;;;;526.38;280.95;;;13.00;99.90;;;;;;8195984;28;20031;-68
2021/07/01 04:54:34;;;;;;;541.35;294.95;;;12.90;99.90;;;;;;8243464;28;20033;-68
2021/07/01 04:58:35;;;;;;;541.85;292.98;;;12.90;99.90;;;;;;8261240;28;20019;-69
2021/07/01 05:02:36;;;;;;;545.72;291.23;;;12.90;99.90;;;;;;8201662;28;20022;-69
2021/07/01 05:06:38;;;;;;;540.35;291.88;;;12.80;99.90;;;;;;8206552;28;20063;-69
2021/07/01 05:10:38;;;;;;;533.80;285.77;;;12.90;99.90;;;;;;8193819;28;20050;-69
2021/07/01 05:14:39;;;;;;;536.35;292.92;;;13.00;99.90;;;;;;8169072;28;20089;-68
2021/07/01 05:18:40;;;;;;;535.75;290.92;;;12.90;99.90;;;;;;8162717;28;20036;-68
2021/07/01 05:22:40;;;;;;;531.67;276.60;;;13.20;99.90;;;;;;8167188;28;20059;-70
2021/07/01 05:26:41;;;;;;;534.75;281.20;;;13.20;99.90;;;;;;8192468;28;20031;-68
2021/07/01 05:30:42;;;;;;;536.53;281.45;;;13.30;99.90;;;;;;8191366;28;20023;-68
2021/07/01 05:34:42;;;;;;;547.50;290.80;;;13.30;99.90;;;;;;8208440;28;20102;-60
2021/07/01 05:38:43;;;;;;;541.97;286.58;;;13.30;99.90;;;;;;8221332;28;20035;-60
2021/07/01 05:42:44;;;;;;;540.72;286.67;;;13.20;99.90;;;;;;8222517;28;20034;-60
2021/07/01 05:46:44;;;;;;;541.10;289.38;;;13.30;99.90;;;;;;8203631;28;20693;-60
2021/07/01 05:51:07;;;;;;;540.78;287.48;;;13.20;99.90;;;;;;8159999;29;20028;-58
2021/07/01 05:55:08;;;;;;;543.58;290.02;;;13.20;99.90;;;;;;8185504;28;20405;-59
2021/07/01 05:59:09;;;;;;;539.25;288.27;;;13.10;99.90;;;;;;8192833;28;20057;-57
2021/07/01 06:03:10;;;;;;;542.67;290.92;;;13.20;99.90;;;;;;8198199;28;20038;-60
2021/07/01 06:07:17;;;;;;;541.22;292.98;;;13.20;99.90;;;;;;8201748;28;20062;-60
2021/07/01 06:11:18;;;;;;;546.03;291.98;;;13.30;99.90;;;;;;8191513;29;20081;-59
2021/07/01 06:15:19;;;;;;;542.17;287.90;;;13.40;99.90;;;;;;8192992;28;20529;-60
2021/07/01 06:19:20;;;;;;;540.08;288.20;;;13.50;99.90;;;;;;8210933;28;20122;-60
2021/07/01 06:23:21;;;;;;;533.15;282.02;;;13.60;99.90;;;;;;8191195;28;20493;-59
2021/07/01 06:27:29;;;;;;;532.67;283.73;;;13.70;99.90;;;;;;8172739;28;20035;-59
2021/07/01 06:31:29;;;;;;;535.13;284.75;;;13.80;99.90;;;;;;8160642;29;20099;-60
2021/07/01 06:35:30;;;;;;;537.38;285.33;;;13.70;99.90;;;;;;8175489;28;20508;-60
2021/07/01 06:39:32;;;;;;;538.42;287.63;;;13.60;99.90;;;;;;8160625;28;20057;-59
2021/07/01 06:43:33;;;;;;;534.67;281.45;;;13.60;99.90;;;;;;8162594;29;20032;-60
2021/07/01 06:47:34;;;;;;;534.35;282.40;;;13.60;99.90;;;;;;8172207;28;20028;-60
2021/07/01 06:51:41;;;;;;;536.10;281.15;;;13.70;99.90;;;;;;8185475;28;20062;-59
2021/07/01 06:55:44;;;;;;;533.63;279.05;;;13.90;99.90;;;;;;8190831;28;20035;-60
2021/07/01 06:59:44;;;;;;;527.58;273.17;;;13.80;99.90;;;;;;8191347;28;20392;-60
2021/07/01 07:03:45;;;;;;;533.38;282.35;;;13.90;99.90;;;;;;8183888;28;20035;-59
2021/07/01 07:07:48;;;;;;;536.22;291.55;;;13.90;99.90;;;;;;8162033;29;20023;-61
2021/07/01 07:11:50;;;;;;;534.63;286.58;;;13.90;99.90;;;;;;8189529;29;20031;-60
2021/07/01 07:15:58;;;;;;;535.25;284.10;;;14.20;99.90;;;;;;8190235;28;20496;-60
2021/07/01 07:20:00;;;;;;;533.17;284.67;;;14.50;99.90;;;;;;8191227;28;20066;-60
2021/07/01 07:24:03;;;;;;;534.35;287.83;;;14.80;99.90;;;;;;8180736;28;20035;-60
2021/07/01 07:28:06;;;;;;;534.00;288.98;;;14.80;99.90;;;;;;8163883;29;20039;-59
2021/07/01 07:32:09;;;;;;;531.13;285.45;;;14.60;99.90;;;;;;8161582;28;20040;-60
2021/07/01 07:36:10;;;;;;;522.58;279.15;;;14.60;99.90;;;;;;8217045;28;20027;-60
2021/07/01 07:40:11;;;;;;;524.03;279.80;;;14.60;99.90;;;;;;8223218;28;20489;-60
2021/07/01 07:44:12;;;;;;;531.03;287.17;;;15.10;99.90;;;;;;8222644;28;20050;-59
2021/07/01 07:48:13;;;;;;;529.60;288.63;;;15.30;99.90;;;;;;8189824;28;20027;-60
2021/07/01 07:52:14;;;;;;;529.75;287.52;;;15.50;99.90;;;;;;8160814;28;20524;-61
2021/07/01 07:56:21;;;;;;;534.60;289.35;;;15.90;99.90;;;;;;8184337;28;20024;-59
2021/07/01 08:00:25;;;;;;;530.47;293.98;;;16.00;99.90;;;;;;8187446;28;20058;-60
2021/07/01 08:04:27;;;;;;;530.72;294.95;;;16.20;99.90;;;;;;8202969;28;20034;-60
2021/07/01 08:08:32;;;;;;;518.70;290.88;;;16.20;99.90;;;;;;8161367;28;20024;-61
2021/07/01 08:12:34;;;;;;;543.60;312.00;;;16.10;99.90;;;;;;8160935;28;20182;-61
2021/07/01 08:16:35;;;;;;;542.25;309.67;;;15.80;99.90;;;;;;8162437;28;20032;-60
2021/07/01 08:20:36;;;;;;;549.53;319.75;;;15.80;99.90;;;;;;8171132;28;20039;-60
2021/07/01 08:24:37;;;;;;;545.22;313.67;;;16.20;99.90;;;;;;8185999;28;20088;-60
2021/07/01 08:28:38;;;;;;;541.22;309.30;;;16.50;99.90;;;;;;8195028;28;20031;-60
2021/07/01 08:32:39;;;;;;;541.17;313.35;;;16.50;99.90;;;;;;8196316;28;20027;-57
2021/07/01 08:36:43;;;;;;;541.95;312.25;;;16.50;99.90;;;;;;8207053;28;20039;-60
2021/07/01 08:40:46;;;;;;;541.42;315.95;;;16.40;99.90;;;;;;8195101;28;20035;-59
2021/07/01 08:44:56;;;;;;;542.28;316.58;;;16.10;99.90;;;;;;8167599;29;20032;-60
2021/07/01 08:48:58;;;;;;;542.28;316.23;;;16.30;99.90;;;;;;8170012;28;20028;-60
2021/07/01 08:53:18;;;;;;;541.50;316.92;;;16.20;99.90;;;;;;8169758;28;20135;-60
2021/07/01 08:57:19;;;;;;;543.80;315.63;;;15.90;99.90;;;;;;8188721;28;20024;-61
2021/07/01 09:01:22;;;;;;;540.58;313.35;;;15.40;99.90;;;;;;8182264;28;20039;-60
2021/07/01 09:05:26;;;;;;;536.08;307.20;;;15.30;99.90;;;;;;8215645;28;20038;-60
2021/07/01 09:09:37;;;;;;;534.10;306.80;;;15.10;99.90;;;;;;8197023;28;20592;-60
2021/07/01 09:13:44;;;;;;;532.72;301.80;;;15.30;99.90;;;;;;8162635;28;20094;-60
2021/07/01 09:17:48;;;;;;;532.40;301.52;;;15.60;99.90;;;;;;8180486;28;20035;-60
2021/07/01 09:21:51;;;;;;;531.95;300.95;;;15.90;99.90;;;;;;8193333;28;20486;-60
2021/07/01 09:25:54;;;;;;;532.53;303.23;;;16.20;99.90;;;;;;8181359;29;20106;-60
2021/07/01 09:29:57;;;;;;;532.25;307.73;;;16.20;99.90;;;;;;8183506;28;20043;-60
2021/07/01 09:33:57;;;;;;;530.35;302.42;;;16.00;99.90;;;;;;8194116;28;20028;-60
2021/07/01 09:38:04;;;;;;;532.85;312.80;;;16.10;99.90;;;;;;8164851;28;20036;-60
2021/07/01 09:42:06;;;;;;;520.28;299.33;;;16.10;99.90;;;;;;8197906;28;20077;-60
2021/07/01 09:46:14;;;;;;;554.15;333.63;;;16.10;99.90;;;;;;8161190;28;20051;-60
2021/07/01 09:50:14;;;;;;;553.42;325.90;;;16.20;99.90;;;;;;8164035;28;20027;-60
2021/07/01 09:54:17;;;;;;;551.28;327.42;;;16.30;99.90;;;;;;8180536;29;20059;-58
2021/07/01 09:58:20;;;;;;;550.20;329.70;;;16.60;99.90;;;;;;8183622;28;20428;-61
2021/07/01 10:02:22;;;;;;;558.15;336.90;;;16.80;99.90;;;;;;8193007;28;20030;-60
2021/07/01 10:06:24;;;;;;;553.38;331.92;;;16.90;99.90;;;;;;8203510;28;20058;-59
2021/07/01 10:10:25;;;;;;;556.80;333.10;;;16.50;99.90;;;;;;8178337;28;20031;-60
2021/07/01 10:14:38;;;;;;;553.08;329.63;;;16.20;99.90;;;;;;8172755;28;20048;-60
2021/07/01 10:18:43;;;;;;;548.15;324.00;;;16.10;99.90;;;;;;8166493;28;20047;-58
2021/07/01 10:22:43;;;;;;;552.15;324.30;;;16.20;99.90;;;;;;8168845;29;20058;-58
2021/07/01 10:26:49;;;;;;;551.85;321.75;;;16.00;99.90;;;;;;8178412;28;20058;-60
2021/07/01 10:31:01;;;;;;;547.17;318.60;;;15.90;99.90;;;;;;8163170;29;20103;-60
2021/07/01 10:35:02;;;;;;;547.42;321.48;;;16.10;99.90;;;;;;8200577;28;20025;-59
2021/07/01 10:39:03;;;;;;;548.00;323.63;;;16.40;99.90;;;;;;8186402;28;20030;-60
2021/07/01 10:43:05;;;;;;;548.88;327.55;;;16.40;99.90;;;;;;8178192;28;20538;-60
2021/07/01 10:47:26;;;;;;;554.53;337.77;;;16.60;99.90;;;;;;8166668;28;20028;-58
2021/07/01 10:51:29;;;;;;;548.05;331.13;;;16.80;99.90;;;;;;8160081;28;20107;-60
2021/07/01 10:55:41;;;;;;;551.33;331.75;;;16.50;99.90;;;;;;8169754;28;20039;-60
2021/07/01 10:59:50;;;;;;;550.88;333.05;;;16.40;99.90;;;;;;8159980;29;20020;-60
2021/07/01 11:04:12;;;;;;;552.80;338.77;;;16.60;99.90;;;;;;8181213;28;20098;-61
2021/07/01 11:08:43;;;;;;;558.08;343.73;;;16.90;99.90;;;;;;8191551;28;20020;-61
2021/07/01 11:12:46;;;;;;;550.42;339.45;;;16.70;99.90;;;;;;8192408;28;20050;-60
2021/07/01 11:16:47;;;;;;;553.20;337.38;;;16.70;99.90;;;;;;8179325;28;20673;-60
2021/07/01 11:21:05;;;;;;;549.75;333.20;;;16.60;99.90;;;;;;8174187;28;20102;-60
2021/07/01 11:25:25;;;;;;;555.25;339.73;;;17.00;99.90;;;;;;8173944;28;20444;-72
2021/07/01 11:29:37;;;;;;;560.10;351.03;;;17.40;99.90;;;;;;8173707;28;20051;-70
2021/07/01 11:33:37;;;;;;;562.03;359.60;;;18.00;99.90;;;;;;8169063;28;20259;-60
2021/07/01 11:37:41;;;;;;;561.45;362.45;;;18.30;99.90;;;;;;8173511;28;20101;-60
2021/07/01 11:41:45;;;;;;;559.85;368.33;;;18.30;99.90;;;;;;8159840;29;20058;-60
2021/07/01 11:45:46;;;;;;;557.42;364.63;;;18.60;99.90;;;;;;8161270;28;20146;-60
2021/07/01 11:49:48;;;;;;;557.80;366.83;;;18.70;99.90;;;;;;8187827;28;20031;-61
2021/07/01 11:53:49;;;;;;;554.95;360.55;;;18.60;99.90;;;;;;8172045;28;20378;-60
2021/07/01 11:57:50;;;;;;;549.00;351.77;;;18.00;99.90;;;;;;8173656;28;20031;-59
2021/07/01 12:01:50;;;;;;;550.50;348.60;;;17.40;99.90;;;;;;8190899;28;20027;-60
2021/07/01 12:05:53;;;;;;;543.55;342.95;;;17.20;99.90;;;;;;8181292;28;20110;-60
2021/07/01 12:09:56;;;;;;;543.92;340.15;;;17.10;99.90;;;;;;8178773;28;20030;-59
2021/07/01 12:13:57;;;;;;;546.15;341.27;;;17.00;99.90;;;;;;8174993;28;20110;-58
2021/07/01 12:18:04;;;;;;;548.70;341.05;;;17.00;99.90;;;;;;8166835;28;20035;-57
2021/07/01 12:22:05;;;;;;;541.72;327.52;;;16.70;99.90;;;;;;8168605;28;20039;-59
2021/07/01 12:26:06;;;;;;;540.58;323.73;;;16.20;99.90;;;;;;8188121;28;20111;-60
2021/07/01 12:30:06;;;;;;;535.60;310.70;;;15.90;99.90;;;;;;8179628;28;20446;-59
2021/07/01 12:34:11;;;;;;;534.80;311.35;;;15.80;99.90;;;;;;8180179;28;20390;-59
2021/07/01 12:38:12;;;;;;;530.78;300.38;;;16.00;99.90;;;;;;8177807;28;20482;-59
2021/07/01 12:42:16;;;;;;;527.50;304.33;;;16.30;99.90;;;;;;8175142;28;20036;-60
2021/07/01 12:46:41;;;;;;;530.97;311.48;;;16.50;99.90;;;;;;8185919;28;20028;-61
2021/07/01 12:50:42;;;;;;;531.75;317.42;;;16.90;99.90;;;;;;8189678;28;20492;-59
2021/07/01 12:54:42;;;;;;;534.53;319.35;;;17.20;99.90;;;;;;8188320;28;20049;-60
2021/07/01 12:58:43;;;;;;;535.95;324.08;;;17.40;99.90;;;;;;8188893;28;20084;-61
2021/07/01 13:02:56;;;;;;;535.20;324.92;;;17.70;99.90;;;;;;8181514;28;20032;-61
2021/07/01 13:06:58;;;;;;;531.17;320.92;;;17.70;99.90;;;;;;8190312;28;20025;-58
2021/07/01 13:11:05;;;;;;;529.95;322.55;;;17.50;99.90;;;;;;8165410;28;20040;-60
2021/07/01 13:15:10;;;;;;;528.17;321.13;;;17.30;99.90;;;;;;8191509;28;20066;-59
2021/07/01 13:19:21;;;;;;;520.53;312.67;;;17.40;99.90;;;;;;8176703;28;20039;-60
2021/07/01 13:23:22;;;;;;;516.55;309.92;;;17.40;99.90;;;;;;8182905;28;20031;-59
2021/07/01 13:27:33;;;;;;;521.95;313.73;;;17.50;99.90;;;;;;8178470;28;20425;-64
2021/07/01 13:31:33;;;;;;;522.55;310.17;;;17.20;99.90;;;;;;8178657;28;20038;-63
2021/07/01 13:35:37;;;;;;;537.97;327.50;;;17.20;99.90;;;;;;8181183;28;20047;-64
2021/07/01 13:39:37;;;;;;;541.88;337.73;;;17.50;99.90;;;;;;8181044;28;20031;-63
2021/07/01 13:43:38;;;;;;;544.15;342.75;;;17.90;99.90;;;;;;8180839;28;20078;-64
2021/07/01 13:47:48;;;;;;;547.10;350.80;;;18.30;99.90;;;;;;8162403;28;20023;-64
2021/07/01 13:51:53;;;;;;;544.28;347.92;;;18.20;99.90;;;;;;8175469;28;20028;-63
2021/07/01 13:55:56;;;;;;;545.58;350.25;;;18.30;99.90;;;;;;8175683;28;20024;-64
2021/07/01 13:59:58;;;;;;;548.33;352.88;;;18.30;99.90;;;;;;8185238;28;20031;-64
2021/07/01 14:03:58;;;;;;;562.67;374.52;;;18.50;99.90;;;;;;8184713;28;20035;-64
2021/07/01 14:07:59;;;;;;;574.72;407.23;;;18.90;99.90;;;;;;8174627;28;20031;-64
2021/07/01 14:12:00;;;;;;;543.97;359.40;;;18.90;99.90;;;;;;8175693;29;20038;-64
2021/07/01 14:16:01;;;;;;;551.85;372.83;;;18.90;99.90;;;;;;8178765;28;20046;-63
2021/07/01 14:20:07;;;;;;;543.40;356.38;;;18.60;99.90;;;;;;8190341;28;20055;-63
2021/07/01 14:24:12;;;;;;;542.38;356.50;;;18.40;99.90;;;;;;8180084;28;20043;-63
2021/07/01 14:28:14;;;;;;;565.42;383.20;;;18.30;99.90;;;;;;8186747;28;20052;-63
2021/07/01 14:32:35;;;;;;;539.72;346.55;;;18.00;99.90;;;;;;8208717;28;20074;-58
2021/07/01 14:36:55;;;;;;;545.58;352.65;;;17.70;99.90;;;;;;8161467;28;20031;-60
2021/07/01 14:41:01;;;;;;;549.93;353.47;;;17.90;99.90;;;;;;8159763;28;20074;-59
2021/07/01 14:45:07;;;;;;;543.72;339.30;;;18.10;99.90;;;;;;8170956;28;20330;-60
2021/07/01 14:49:21;;;;;;;540.25;334.65;;;17.50;99.90;;;;;;8164437;29;20131;-59
2021/07/01 14:53:28;;;;;;;533.97;329.00;;;17.60;99.90;;;;;;8179001;28;20027;-61
2021/07/01 14:57:33;;;;;;;534.65;335.33;;;17.60;99.90;;;;;;8184543;28;20031;-60
2021/07/01 15:01:34;;;;;;;521.58;314.42;;;17.90;99.90;;;;;;8191221;28;20035;-60
2021/07/01 15:05:35;;;;;;;512.83;316.77;;;18.20;99.90;;;;;;8187919;28;20042;-61
2021/07/01 15:10:07;;;;;;;528.72;334.75;;;18.50;99.90;;;;;;8190399;28;20039;-61
2021/07/01 15:14:16;;;;;;;531.97;336.30;;;18.80;99.90;;;;;;8183122;28;20126;-61
2021/07/01 15:18:16;;;;;;;530.85;333.13;;;18.60;99.90;;;;;;8183447;28;20970;-60
2021/07/01 15:22:18;;;;;;;534.60;337.65;;;18.50;99.90;;;;;;8188845;28;20031;-60
2021/07/01 15:26:19;;;;;;;538.63;344.95;;;18.60;99.90;;;;;;8192661;28;20023;-60
2021/07/01 15:30:21;;;;;;;542.10;350.88;;;18.80;99.90;;;;;;8185159;28;20067;-61
2021/07/01 15:34:22;;;;;;;545.38;364.83;;;19.10;99.90;;;;;;8194031;28;20031;-62
2021/07/01 15:38:22;;;;;;;546.70;376.48;;;19.80;99.90;;;;;;8227679;28;20035;-61
2021/07/01 15:42:23;;;;;;;549.83;378.02;;;20.00;99.90;;;;;;8216485;28;20040;-62
2021/07/01 15:46:24;;;;;;;547.40;372.85;;;19.90;99.90;;;;;;8178522;28;20023;-61
2021/07/01 15:50:25;;;;;;;546.55;368.25;;;19.00;99.90;;;;;;8187470;28;20658;-60
2021/07/01 15:54:26;;;;;;;545.58;363.92;;;18.40;99.90;;;;;;8195510;28;20036;-61
2021/07/01 15:58:26;;;;;;;544.35;361.02;;;18.30;99.90;;;;;;8195561;28;20070;-61
2021/07/01 16:02:31;;;;;;;540.88;359.30;;;18.50;99.90;;;;;;8186318;28;20027;-61
2021/07/01 16:06:32;;;;;;;543.35;363.88;;;19.00;99.90;;;;;;8167140;29;20547;-62
2021/07/01 16:10:33;;;;;;;543.92;371.92;;;19.70;99.90;;;;;;8194411;28;20055;-61
2021/07/01 16:14:34;;;;;;;551.33;392.63;;;19.90;99.90;;;;;;8189279;28;20035;-61
2021/07/01 16:18:34;;;;;;;550.08;392.27;;;20.60;99.90;;;;;;8186856;28;20047;-61
2021/07/01 16:22:36;;;;;;;550.53;397.10;;;20.90;99.90;;;;;;8195162;29;20027;-61
2021/07/01 16:26:38;;;;;;;552.42;406.92;;;21.00;99.90;;;;;;8194921;28;20023;-61
2021/07/01 16:30:41;;;;;;;553.00;419.40;;;21.20;99.90;;;;;;8181189;28;20028;-61
2021/07/01 16:34:41;;;;;;;548.40;421.67;;;21.40;99.90;;;;;;8188600;28;20378;-61
2021/07/01 16:38:42;;;;;;;547.50;414.50;;;21.60;99.90;;;;;;8181864;28;20039;-61
2021/07/01 16:42:43;;;;;;;545.83;418.25;;;21.50;99.90;;;;;;8185913;28;20035;-61
2021/07/01 16:46:46;;;;;;;548.20;429.58;;;21.30;99.90;;;;;;8172862;28;20035;-61
2021/07/01 16:50:48;;;;;;;555.75;433.88;;;22.10;99.90;;;;;;8164946;28;20027;-60
2021/07/01 16:54:51;;;;;;;559.97;440.17;;;21.60;99.90;;;;;;8182137;28;20032;-61
2021/07/01 16:58:52;;;;;;;564.55;450.80;;;21.20;99.90;;;;;;8168188;28;20023;-61
2021/07/01 17:02:54;;;;;;;565.05;452.27;;;21.10;99.90;;;;;;8172388;28;20148;-61
2021/07/01 17:06:56;;;;;;;561.10;462.65;;;22.50;99.90;;;;;;8185521;28;20061;-59
2021/07/01 17:10:58;;;;;;;576.40;511.13;;;23.40;99.90;;;;;;8172348;28;20034;-61
2021/07/01 17:14:59;;;;;;;600.17;536.03;;;24.40;99.90;;;;;;8176237;28;20519;-61
2021/07/01 17:19:02;;;;;;;606.58;543.38;;;26.60;99.90;;;;;;8177055;28;20039;-62
2021/07/01 17:23:04;;;;;;;590.05;528.05;;;26.80;99.90;;;;;;8181797;28;20525;-64
2021/07/01 17:27:05;;;;;;;597.00;534.20;;;26.50;99.40;;;;;;8174032;28;20028;-63
2021/07/01 17:31:06;;;;;;;591.35;527.45;;;24.60;99.90;;;;;;8178038;28;20056;-62
2021/07/01 17:35:08;;;;;;;577.60;512.75;;;22.10;99.90;;;;;;8176560;28;20039;-62
2021/07/01 17:39:08;;;;;;;577.78;497.40;;;21.10;99.90;;;;;;8177617;28;20043;-63
2021/07/01 17:43:11;;;;;;;560.00;438.38;;;20.40;99.90;;;;;;8174821;28;20031;-63
2021/07/01 17:47:11;;;;;;;550.15;402.52;;;19.50;99.90;;;;;;8177147;28;20019;-62
2021/07/01 17:51:12;;;;;;;561.88;418.02;;;19.30;99.90;;;;;;8178932;28;20071;-63
2021/07/01 17:55:13;;;;;;;561.67;417.20;;;19.10;99.90;;;;;;8179062;28;20032;-63
2021/07/01 17:59:15;;;;;;;562.85;417.23;;;19.10;99.90;;;;;;8176565;28;20037;-63
2021/07/01 18:03:18;;;;;;;564.80;421.65;;;19.10;99.90;;;;;;8175697;28;20175;-63
2021/07/01 18:07:19;;;;;;;562.60;413.25;;;18.90;99.90;;;;;;8185383;28;20444;-62
2021/07/01 18:11:19;;;;;;;562.58;405.90;;;18.60;99.90;;;;;;8174935;28;20071;-63
2021/07/01 18:15:20;;;;;;;558.03;390.20;;;18.60;99.90;;;;;;8175477;29;20031;-62
2021/07/01 18:19:21;;;;;;;559.17;387.38;;;18.40;99.90;;;;;;8170212;28;20430;-63
2021/07/01 18:23:21;;;;;;;556.72;382.02;;;18.00;99.90;;;;;;8182016;28;20039;-63
2021/07/01 18:27:22;;;;;;;556.22;377.80;;;18.00;99.90;;;;;;8188357;28;20027;-63
2021/07/01 18:31:23;;;;;;;553.80;364.08;;;17.70;99.90;;;;;;8175243;28;20023;-63
2021/07/01 18:35:23;;;;;;;526.67;335.58;;;17.60;99.90;;;;;;8192826;28;20044;-62
2021/07/01 18:39:24;;;;;;;537.25;341.15;;;17.50;99.90;;;;;;8177860;28;20836;-63
2021/07/01 18:43:25;;;;;;;543.40;348.45;;;17.30;99.90;;;;;;8194216;28;20057;-63
2021/07/01 18:47:28;;;;;;;544.20;347.60;;;16.90;99.90;;;;;;8167342;28;20039;-63
2021/07/01 18:51:28;;;;;;;546.17;349.83;;;16.80;99.90;;;;;;8179782;28;20031;-64
2021/07/01 18:55:29;;;;;;;546.40;352.08;;;16.80;99.90;;;;;;8182575;28;20081;-64
2021/07/01 18:59:30;;;;;;;547.05;350.35;;;16.60;99.90;;;;;;8165424;28;20379;-63
2021/07/01 19:03:31;;;;;;;544.78;339.10;;;16.70;99.90;;;;;;8178836;28;20035;-63
2021/07/01 19:07:32;;;;;;;540.50;331.92;;;16.60;99.90;;;;;;8170078;28;20027;-63
2021/07/01 19:11:33;;;;;;;549.45;331.70;;;16.30;99.90;;;;;;8175622;28;20401;-63
2021/07/01 19:15:33;;;;;;;542.47;332.30;;;16.20;99.90;;;;;;8173563;28;20031;-63
2021/07/01 19:19:36;;;;;;;548.30;322.10;;;16.00;99.90;;;;;;8176338;28;20035;-63
2021/07/01 19:23:36;;;;;;;542.92;319.75;;;15.80;99.90;;;;;;8180093;28;20120;-63
2021/07/01 19:27:37;;;;;;;550.95;341.42;;;15.80;99.90;;;;;;8179169;28;20134;-66
2021/07/01 19:31:38;;;;;;;543.35;323.63;;;15.60;99.90;;;;;;8165376;28;20031;-67
2021/07/01 19:35:38;;;;;;;540.67;318.20;;;15.40;99.90;;;;;;8182698;28;20149;-66
2021/07/01 19:39:44;;;;;;;538.33;318.50;;;15.40;99.90;;;;;;8184177;28;20080;-68
2021/07/01 19:43:47;;;;;;;538.63;312.80;;;15.40;99.90;;;;;;8177464;28;20110;-66
2021/07/01 19:47:48;;;;;;;535.97;311.45;;;15.30;99.90;;;;;;8167948;28;20448;-66
2021/07/01 19:51:49;;;;;;;534.85;310.48;;;15.00;99.90;;;;;;8166981;28;20114;-66
2021/07/01 19:55:51;;;;;;;535.47;307.13;;;15.30;99.90;;;;;;8175589;28;20038;-66
2021/07/01 19:59:56;;;;;;;536.58;308.05;;;15.00;99.90;;;;;;8180523;28;20057;-66